Terminal Aerodrome Forecast
Issued by NWS Shreveport, LA

Home | Current Version | Previous Version | Text Only | Print | Product List | Glossary On
Versions: 1 2 3 4 5 6 7 8 9 10 11 12 13 14 15
000
FTUS44 KSHV 052334
TAFTYR
TAF
KTYR 052334Z 0600/0624 15007KT P6SM VCSH SCT050 BKN100
     FM060200 15008KT P6SM SCT080 BKN110 BKN250
     FM060800 14009KT P6SM BKN015
      TEMPO 0612/0615 BKN007
     FM061500 17012KT P6SM SCT010 BKN015
     FM061700 17012G18KT P6SM BKN025
     FM061800 17012G18KT P6SM BKN035=

USA.gov is the U.S. government's official web portal to all federal, state and local government web resources and services.